createdAt,value
2019-04-11T00:00:07.633Z,48.60
2019-04-11T00:02:33.945Z,49.00
2019-04-11T00:05:02.345Z,48.70
2019-04-11T00:07:28.697Z,49.10
2019-04-11T00:09:54.988Z,48.90
2019-04-11T00:12:22.148Z,49.40
2019-04-11T00:14:48.611Z,49.60
2019-04-11T00:17:15.144Z,49.30
2019-04-11T00:19:41.580Z,49.90
2019-04-11T00:22:08.934Z,49.80
2019-04-11T00:24:36.673Z,50.00
2019-04-11T00:27:04.482Z,49.80
2019-04-11T00:29:31.282Z,50.10
2019-04-11T00:31:58.035Z,49.90
2019-04-11T00:34:24.483Z,49.70
2019-04-11T00:36:50.809Z,50.50
2019-04-11T00:39:17.341Z,50.50
2019-04-11T00:41:43.672Z,50.70
2019-04-11T00:44:10.435Z,50.60
2019-04-11T00:46:36.742Z,50.30
2019-04-11T00:49:03.281Z,50.30
2019-04-11T00:51:29.838Z,50.70
2019-04-11T00:53:58.241Z,50.70
2019-04-11T00:56:24.384Z,50.50
2019-04-11T00:58:51.995Z,50.60
2019-04-11T01:01:19.709Z,51.20
2019-04-11T01:03:47.411Z,51.50
2019-04-11T01:06:14.136Z,51.30
2019-04-11T01:08:41.876Z,50.80
2019-04-11T01:11:08.450Z,50.70
2019-04-11T01:13:46.643Z,50.80
2019-04-11T01:16:05.178Z,51.10
2019-04-11T01:18:31.915Z,51.40
2019-04-11T01:20:59.776Z,51.20
2019-04-11T01:23:27.079Z,51.20
2019-04-11T01:25:54.841Z,51.80
2019-04-11T01:28:21.357Z,51.40
2019-04-11T01:31:01.721Z,51.60
2019-04-11T01:33:28.075Z,51.50
2019-04-11T01:35:55.315Z,51.70
2019-04-11T01:38:23.698Z,51.60
2019-04-11T01:40:49.907Z,51.90
2019-04-11T01:43:16.238Z,52.30
2019-04-11T01:45:43.338Z,52.00
2019-04-11T01:48:15.388Z,51.60
2019-04-11T01:50:43.226Z,51.50
2019-04-11T01:53:10.907Z,52.50
2019-04-11T01:55:37.288Z,52.50
2019-04-11T01:58:04.575Z,52.40
2019-04-11T02:00:34.351Z,52.50
2019-04-11T02:03:03.241Z,52.50
2019-04-11T02:05:32.804Z,52.50
2019-04-11T02:08:00.764Z,52.20
2019-04-11T02:10:28.612Z,52.20
2019-04-11T02:12:55.303Z,52.00
2019-04-11T02:15:24.006Z,51.80
2019-04-11T02:17:50.906Z,51.90
2019-04-11T02:20:17.620Z,51.80
2019-04-11T02:22:46.526Z,52.10
2019-04-11T02:25:28.251Z,52.30
2019-04-11T02:27:56.065Z,51.80
2019-04-11T02:30:23.055Z,52.00
2019-04-11T02:32:51.285Z,51.70
2019-04-11T02:35:19.837Z,52.10
2019-04-11T02:37:47.802Z,51.70
2019-04-11T02:40:15.436Z,51.60
2019-04-11T02:42:43.211Z,51.50
2019-04-11T02:45:25.140Z,51.40
2019-04-11T02:47:41.254Z,51.30
2019-04-11T02:50:08.259Z,51.40
2019-04-11T02:52:35.580Z,51.40
2019-04-11T02:55:05.636Z,51.40
2019-04-11T02:57:32.342Z,51.40
2019-04-11T02:59:59.849Z,51.30
2019-04-11T03:02:26.819Z,51.20
2019-04-11T03:04:55.387Z,51.20
2019-04-11T03:07:22.730Z,51.30
2019-04-11T03:09:51.064Z,51.20
2019-04-11T03:12:19.302Z,51.20
2019-04-11T03:15:02.779Z,51.20
2019-04-11T03:17:20.555Z,51.10
2019-04-11T03:19:57.873Z,51.30
2019-04-11T03:22:11.603Z,51.10
2019-04-11T03:24:38.532Z,51.10
2019-04-11T03:27:07.187Z,51.10
2019-04-11T03:29:35.594Z,51.00
2019-04-11T03:32:40.138Z,51.00
2019-04-11T03:37:40.074Z,51.00
2019-04-11T03:39:48.879Z,51.00
2019-04-11T03:42:15.934Z,51.00
2019-04-11T03:44:30.580Z,51.00
2019-04-11T03:47:08.314Z,51.00
2019-04-11T03:49:31.726Z,51.10
2019-04-11T03:51:50.594Z,51.20
2019-04-11T03:54:18.024Z,51.20
2019-04-11T03:56:45.732Z,51.20
2019-04-11T03:59:14.817Z,51.30
2019-04-11T04:01:42.423Z,51.40
2019-04-11T04:04:11.126Z,51.40
2019-04-11T04:06:39.435Z,51.40
2019-04-11T04:09:08.920Z,51.60
2019-04-11T04:11:38.432Z,51.60
2019-04-11T04:14:24.176Z,51.70
2019-04-11T04:16:59.214Z,51.70
2019-04-11T04:19:43.558Z,51.60
2019-04-11T04:22:13.520Z,51.80
2019-04-11T04:24:42.636Z,51.70
2019-04-11T04:27:10.081Z,51.90
2019-04-11T04:29:37.895Z,51.90
2019-04-11T04:32:05.477Z,52.20
2019-04-11T04:34:33.810Z,52.30
2019-04-11T04:37:03.484Z,52.20
2019-04-11T04:39:31.251Z,52.50
2019-04-11T04:42:06.054Z,52.30
2019-04-11T04:44:26.577Z,52.30
2019-04-11T04:47:09.401Z,52.40
2019-04-11T04:49:21.454Z,52.50
2019-04-11T04:51:48.042Z,52.90
2019-04-11T04:54:14.445Z,52.80
2019-04-11T04:56:41.944Z,53.00
2019-04-11T04:59:10.058Z,53.00
2019-04-11T05:01:37.459Z,53.00
2019-04-11T05:04:06.748Z,52.70
2019-04-11T05:06:34.531Z,53.60
2019-04-11T05:09:01.352Z,53.10
2019-04-11T05:11:28.379Z,53.00
2019-04-11T05:13:56.467Z,53.10
2019-04-11T05:16:22.997Z,53.20
2019-04-11T05:18:50.255Z,53.50
2019-04-11T05:21:17.116Z,53.40
2019-04-11T05:23:43.829Z,53.30
2019-04-11T05:26:10.927Z,53.50
2019-04-11T05:28:37.536Z,53.60
2019-04-11T05:31:04.176Z,53.70
2019-04-11T05:33:32.210Z,53.60
2019-04-11T05:35:58.618Z,53.70
2019-04-11T05:38:25.300Z,53.70
2019-04-11T05:40:52.384Z,53.80
2019-04-11T05:43:19.839Z,54.20
2019-04-11T05:45:48.533Z,54.30
2019-04-11T05:48:33.031Z,54.30
2019-04-11T05:51:00.418Z,54.30
2019-04-11T05:53:27.846Z,54.30
2019-04-11T05:55:55.932Z,55.00
2019-04-11T05:58:22.250Z,56.00
2019-04-11T06:00:50.417Z,56.70
2019-04-11T06:03:17.648Z,57.00
2019-04-11T06:06:03.263Z,57.40
2019-04-11T06:08:32.228Z,57.80
2019-04-11T06:11:06.549Z,57.80
2019-04-11T06:13:34.826Z,57.60
2019-04-11T06:16:02.825Z,57.50
2019-04-11T06:18:38.176Z,57.30
2019-04-11T06:21:07.516Z,56.80
2019-04-11T06:23:41.768Z,56.40
2019-04-11T06:26:25.086Z,55.90
2019-04-11T06:28:55.474Z,55.60
2019-04-11T06:31:32.336Z,54.80
2019-04-11T06:34:00.835Z,54.80
2019-04-11T06:36:32.127Z,54.50
2019-04-11T06:39:03.077Z,54.20
2019-04-11T06:41:54.828Z,53.70
2019-04-11T06:44:35.563Z,52.40
2019-04-11T06:47:13.048Z,52.80
2019-04-11T06:49:42.512Z,52.50
2019-04-11T06:52:13.394Z,52.10
2019-04-11T06:54:52.312Z,51.90
2019-04-11T06:57:29.984Z,51.10
2019-04-11T06:59:58.704Z,50.70
2019-04-11T07:02:27.919Z,50.50
2019-04-11T07:04:56.236Z,50.10
2019-04-11T07:07:27.079Z,50.10
2019-04-11T07:09:55.477Z,50.10
2019-04-11T07:12:26.713Z,50.30
2019-04-11T07:14:58.067Z,50.30
2019-04-11T07:17:43.829Z,50.50
2019-04-11T07:20:21.786Z,50.80
2019-04-11T07:23:08.027Z,50.90
2019-04-11T07:25:39.530Z,51.00
2019-04-11T07:28:17.113Z,51.20
2019-04-11T07:30:54.605Z,51.50
2019-04-11T07:33:32.825Z,51.50
2019-04-11T07:36:18.427Z,51.70
2019-04-11T07:38:59.166Z,51.50
2019-04-11T07:41:36.553Z,52.20
2019-04-11T07:44:04.262Z,51.50
2019-04-11T07:46:49.520Z,51.50
2019-04-11T07:49:17.906Z,51.40
2019-04-11T07:51:46.072Z,51.20
2019-04-11T07:54:13.676Z,51.00
2019-04-11T07:56:44.742Z,51.00
2019-04-11T07:59:12.938Z,50.90
2019-04-11T08:01:53.284Z,50.70
2019-04-11T08:04:38.670Z,50.80
2019-04-11T08:07:15.867Z,50.30
2019-04-11T08:09:44.103Z,50.20
2019-04-11T08:12:15.360Z,50.20
2019-04-11T08:15:01.376Z,50.00
2019-04-11T08:17:37.056Z,49.60
2019-04-11T08:20:17.303Z,49.70
2019-04-11T08:22:49.608Z,49.90
2019-04-11T08:25:35.536Z,49.30
2019-04-11T08:28:05.872Z,48.60
2019-04-11T08:30:51.870Z,48.60
2019-04-11T08:33:19.903Z,48.50
2019-04-11T08:35:53.461Z,48.00
2019-04-11T08:38:22.504Z,47.40
2019-04-11T08:41:00.977Z,47.20
2019-04-11T08:43:29.207Z,47.10
2019-04-11T08:46:15.588Z,47.00
2019-04-11T08:48:53.295Z,47.00
2019-04-11T08:51:21.459Z,46.30
2019-04-11T08:54:07.035Z,46.10
2019-04-11T08:56:34.865Z,46.00
2019-04-11T08:59:35.791Z,45.30
2019-04-11T09:02:03.099Z,44.30
2019-04-11T09:04:38.394Z,44.70
2019-04-11T09:07:05.389Z,45.00
2019-04-11T09:09:49.359Z,44.50
2019-04-11T09:12:16.262Z,44.00
2019-04-11T09:14:56.866Z,43.90
2019-04-11T09:17:26.073Z,43.10
2019-04-11T09:19:55.008Z,43.20
2019-04-11T09:22:27.435Z,43.40
2019-04-11T09:24:56.848Z,43.70
2019-04-11T09:27:42.304Z,42.60
2019-04-11T09:30:13.318Z,42.50
2019-04-11T09:32:42.425Z,42.50
2019-04-11T09:35:27.691Z,42.00
2019-04-11T09:37:57.937Z,42.00
2019-04-11T09:40:43.650Z,41.70
2019-04-11T09:43:12.422Z,41.40
2019-04-11T09:45:56.020Z,41.10
2019-04-11T09:48:36.346Z,40.80
2019-04-11T09:51:07.263Z,41.50
2019-04-11T09:53:34.817Z,41.30
2019-04-11T09:56:03.366Z,41.30
2019-04-11T09:58:31.641Z,41.20
2019-04-11T10:00:59.886Z,41.00
2019-04-11T10:03:28.095Z,41.00
2019-04-11T10:06:13.989Z,40.20
2019-04-11T10:11:24.454Z,39.10
2019-04-11T10:13:53.234Z,39.60
2019-04-11T10:16:24.496Z,39.10
2019-04-11T10:19:07.814Z,39.30
2019-04-11T10:21:39.541Z,38.80
2019-04-11T10:24:07.828Z,38.70
2019-04-11T10:26:40.268Z,38.80
2019-04-11T10:29:25.762Z,39.10
2019-04-11T10:31:55.101Z,39.10
2019-04-11T10:34:33.517Z,38.00
2019-04-11T10:37:01.047Z,36.90
2019-04-11T10:39:36.037Z,37.80
2019-04-11T10:42:08.499Z,37.30
2019-04-11T10:44:38.802Z,36.70
2019-04-11T10:47:09.813Z,36.20
2019-04-11T10:49:40.680Z,36.20
2019-04-11T10:52:09.837Z,37.00
2019-04-11T10:54:36.722Z,34.50
2019-04-11T10:57:22.538Z,33.60
2019-04-11T10:59:51.080Z,34.80
2019-04-11T11:02:35.728Z,35.20
2019-04-11T11:05:05.177Z,33.90
2019-04-11T11:07:32.921Z,32.90
2019-04-11T11:10:01.312Z,33.00
2019-04-11T11:12:35.511Z,32.50
2019-04-11T11:15:11.483Z,32.40
2019-04-11T11:18:24.051Z,31.90
2019-04-11T11:20:49.937Z,32.00
2019-04-11T11:23:31.102Z,32.40
2019-04-11T11:26:06.893Z,32.60
2019-04-11T11:28:50.928Z,32.90
2019-04-11T11:31:34.627Z,33.40
2019-04-11T11:34:01.276Z,32.70
2019-04-11T11:36:48.057Z,32.90
2019-04-11T11:39:17.405Z,32.50
2019-04-11T11:42:02.518Z,32.60
2019-04-11T11:44:31.026Z,32.20
2019-04-11T11:47:16.082Z,32.40
2019-04-11T11:49:51.927Z,31.70
2019-04-11T11:52:33.398Z,32.60
2019-04-11T11:54:59.831Z,31.60
2019-04-11T11:57:28.812Z,30.80
2019-04-11T11:59:58.664Z,31.30
2019-04-11T12:02:44.337Z,31.60
2019-04-11T12:05:18.700Z,31.50
2019-04-11T12:07:47.328Z,31.60
2019-04-11T12:10:26.018Z,30.70
2019-04-11T12:12:54.547Z,31.30
2019-04-11T12:15:25.405Z,31.40
2019-04-11T12:17:55.974Z,31.70
2019-04-11T12:20:24.888Z,31.20
2019-04-11T12:22:52.512Z,29.10
2019-04-11T12:25:25.087Z,30.00
2019-04-11T12:27:56.409Z,29.60
2019-04-11T12:30:34.417Z,29.70
2019-04-11T12:33:03.795Z,29.90
2019-04-11T12:35:38.114Z,30.00
2019-04-11T12:38:09.487Z,29.90
2019-04-11T12:40:54.324Z,29.80
2019-04-11T12:43:20.655Z,29.90
2019-04-11T12:46:05.786Z,29.80
2019-04-11T12:48:34.102Z,29.60
2019-04-11T12:51:20.708Z,29.40
2019-04-11T12:53:47.038Z,29.30
2019-04-11T12:56:15.535Z,29.80
2019-04-11T12:58:43.899Z,29.80
2019-04-11T13:01:26.034Z,30.40
2019-04-11T13:03:54.379Z,29.80
2019-04-11T13:06:34.861Z,30.00
2019-04-11T13:09:10.793Z,30.00
2019-04-11T13:11:48.286Z,30.00
2019-04-11T13:14:22.400Z,29.00
2019-04-11T13:16:53.643Z,29.50
2019-04-11T13:19:21.817Z,29.70
2019-04-11T13:21:50.194Z,28.70
2019-04-11T13:24:21.133Z,28.60
2019-04-11T13:27:06.408Z,29.30
2019-04-11T13:29:34.672Z,28.00
2019-04-11T13:32:19.754Z,28.30
2019-04-11T13:34:56.946Z,28.20
2019-04-11T13:37:41.906Z,28.30
2019-04-11T13:40:13.150Z,28.80
2019-04-11T13:42:47.674Z,29.60
2019-04-11T13:45:14.618Z,29.90
2019-04-11T13:47:46.218Z,29.60
2019-04-11T13:50:16.910Z,29.00
2019-04-11T13:52:44.047Z,28.60
2019-04-11T13:55:12.916Z,28.70
2019-04-11T13:57:44.453Z,28.70
2019-04-11T14:00:29.882Z,28.40
2019-04-11T14:03:14.636Z,28.80
2019-04-11T14:05:42.088Z,28.80
2019-04-11T14:08:10.386Z,28.90
2019-04-11T14:10:37.312Z,28.90
2019-04-11T14:13:05.703Z,28.70
2019-04-11T14:15:32.123Z,28.80
2019-04-11T14:18:17.606Z,28.50
2019-04-11T14:20:45.880Z,28.60
2019-04-11T14:23:15.097Z,28.30
2019-04-11T14:25:53.154Z,28.70
2019-04-11T14:28:21.458Z,28.90
2019-04-11T14:30:52.219Z,28.60
2019-04-11T14:33:18.165Z,28.50
2019-04-11T14:35:46.637Z,28.80
2019-04-11T14:38:14.851Z,28.70
2019-04-11T14:40:46.116Z,28.60
2019-04-11T14:43:20.448Z,28.80
2019-04-11T14:45:54.449Z,28.90
2019-04-11T14:48:40.090Z,28.70
2019-04-11T14:51:11.271Z,28.80
2019-04-11T14:53:50.568Z,28.90
2019-04-11T14:56:22.889Z,29.00
2019-04-11T14:59:00.265Z,29.10
2019-04-11T15:01:28.663Z,29.10
2019-04-11T15:03:58.659Z,29.00
2019-04-11T15:06:26.852Z,28.90
2019-04-11T15:09:04.734Z,28.90
2019-04-11T15:11:51.135Z,28.70
2019-04-11T15:14:19.413Z,28.80
2019-04-11T15:17:04.599Z,28.40
2019-04-11T15:19:31.219Z,28.60
2019-04-11T15:22:14.856Z,28.90
2019-04-11T15:24:43.131Z,29.00
2019-04-11T15:27:29.740Z,29.10
2019-04-11T15:29:57.891Z,29.30
2019-04-11T15:32:35.096Z,29.50
2019-04-11T15:35:01.958Z,29.20
2019-04-11T15:37:48.341Z,29.00
2019-04-11T15:40:15.854Z,29.00
2019-04-11T15:42:54.031Z,28.80
2019-04-11T15:45:39.281Z,28.90
2019-04-11T15:48:17.832Z,28.90
2019-04-11T15:51:06.734Z,28.80
2019-04-11T15:53:45.168Z,29.00
2019-04-11T15:56:30.131Z,29.50
2019-04-11T15:59:07.321Z,30.00
2019-04-11T16:01:53.919Z,30.00
2019-04-11T16:04:28.118Z,30.10
2019-04-11T16:07:12.316Z,30.40
2019-04-11T16:09:44.393Z,28.60
2019-04-11T16:12:18.879Z,29.80
2019-04-11T16:14:45.755Z,29.30
2019-04-11T16:17:32.086Z,29.00
2019-04-11T16:19:59.680Z,29.10
2019-04-11T16:22:33.893Z,29.20
2019-04-11T16:25:02.053Z,29.30
2019-04-11T16:27:30.243Z,29.50
2019-04-11T16:29:58.564Z,29.60
2019-04-11T16:32:26.783Z,29.70
2019-04-11T16:35:07.094Z,29.80
2019-04-11T16:37:33.688Z,30.10
2019-04-11T16:40:20.817Z,29.70
2019-04-11T16:42:47.241Z,29.70
2019-04-11T16:45:32.512Z,30.00
2019-04-11T16:48:04.577Z,29.60
2019-04-11T16:50:31.072Z,29.60
2019-04-11T16:52:57.442Z,29.50
2019-04-11T16:55:23.772Z,29.70
2019-04-11T16:57:50.204Z,29.80
2019-04-11T17:00:20.376Z,29.80
2019-04-11T17:02:45.119Z,29.80
2019-04-11T17:05:12.579Z,30.00
2019-04-11T17:07:40.852Z,30.00
2019-04-11T17:10:09.480Z,29.90
2019-04-11T17:12:35.771Z,30.10
2019-04-11T17:15:03.006Z,30.30
2019-04-11T17:17:30.991Z,30.50
2019-04-11T17:20:00.030Z,30.60
2019-04-11T17:22:28.412Z,31.40
2019-04-11T17:24:55.216Z,30.80
2019-04-11T17:27:23.239Z,31.00
2019-04-11T17:29:49.764Z,30.80
2019-04-11T17:32:17.793Z,30.80
2019-04-11T17:34:44.128Z,30.70
2019-04-11T17:37:12.469Z,30.60
2019-04-11T17:39:38.812Z,30.80
2019-04-11T17:42:05.112Z,30.80
2019-04-11T17:44:31.472Z,31.00
2019-04-11T17:46:57.763Z,30.80
2019-04-11T17:49:24.134Z,30.80
2019-04-11T17:51:55.577Z,30.60
2019-04-11T17:54:18.534Z,30.50
2019-04-11T17:56:44.995Z,30.70
2019-04-11T17:59:12.217Z,30.70
2019-04-11T18:01:38.653Z,30.70
2019-04-11T18:04:04.983Z,30.70
2019-04-11T18:06:31.768Z,30.90
2019-04-11T18:08:58.168Z,31.00
2019-04-11T18:11:26.223Z,31.20
2019-04-11T18:13:52.765Z,31.40
2019-04-11T18:16:19.068Z,31.60
2019-04-11T18:18:45.372Z,31.60
2019-04-11T18:21:11.768Z,31.60
2019-04-11T18:23:38.302Z,31.70
2019-04-11T18:26:05.337Z,31.80
2019-04-11T18:28:31.671Z,32.00
2019-04-11T18:30:58.208Z,32.10
2019-04-11T18:33:24.531Z,32.20
2019-04-11T18:35:50.978Z,32.30
2019-04-11T18:38:17.329Z,32.30
2019-04-11T18:40:43.828Z,32.70
2019-04-11T18:43:10.400Z,32.60
2019-04-11T18:45:36.900Z,32.70
2019-04-11T18:48:03.566Z,32.80
2019-04-11T18:50:29.968Z,32.90
2019-04-11T18:52:59.325Z,32.90
2019-04-11T18:55:24.628Z,33.00
2019-04-11T18:57:51.009Z,33.10
2019-04-11T19:00:19.599Z,33.20
2019-04-11T19:02:45.911Z,33.30
2019-04-11T19:05:13.330Z,33.30
2019-04-11T19:07:42.817Z,33.50
2019-04-11T19:10:09.158Z,33.50
2019-04-11T19:12:35.547Z,34.30
2019-04-11T19:15:02.447Z,33.50
2019-04-11T19:17:30.370Z,33.60
2019-04-11T19:19:57.092Z,33.70
2019-04-11T19:22:37.028Z,33.70
2019-04-11T19:24:53.541Z,33.90
2019-04-11T19:27:20.462Z,33.70
2019-04-11T19:29:48.513Z,33.70
2019-04-11T19:32:14.920Z,33.80
2019-04-11T19:34:41.936Z,33.70
2019-04-11T19:37:11.795Z,33.90
2019-04-11T19:39:36.848Z,34.10
2019-04-11T19:42:08.840Z,34.00
2019-04-11T19:44:31.660Z,34.00
2019-04-11T19:46:59.669Z,33.80
2019-04-11T19:49:28.824Z,33.40
2019-04-11T19:51:54.235Z,33.60
2019-04-11T19:54:20.667Z,33.60
2019-04-11T19:56:49.177Z,33.80
2019-04-11T19:59:15.581Z,33.80
2019-04-11T20:01:42.140Z,33.80
2019-04-11T20:04:08.553Z,34.10
2019-04-11T20:06:34.985Z,34.00
2019-04-11T20:09:01.312Z,34.20
2019-04-11T20:11:29.320Z,34.20
2019-04-11T20:13:55.714Z,34.40
2019-04-11T20:16:22.376Z,35.10
2019-04-11T20:18:51.370Z,34.50
2019-04-11T20:21:16.883Z,34.70
2019-04-11T20:23:45.104Z,34.90
2019-04-11T20:26:11.360Z,34.80
2019-04-11T20:28:37.690Z,34.90
2019-04-11T20:31:04.073Z,34.90
2019-04-11T20:33:33.725Z,35.00
2019-04-11T20:35:58.629Z,35.10
2019-04-11T20:38:24.956Z,35.30
2019-04-11T20:40:52.512Z,35.40
2019-04-11T20:43:19.463Z,35.30
2019-04-11T20:45:45.771Z,35.50
2019-04-11T20:48:12.225Z,35.80
2019-04-11T20:50:38.560Z,35.70
2019-04-11T20:53:12.552Z,35.70
2019-04-11T20:55:33.062Z,35.70
2019-04-11T20:57:59.492Z,35.80
2019-04-11T21:00:26.027Z,35.90
2019-04-11T21:02:52.359Z,35.90
2019-04-11T21:05:18.757Z,35.90
2019-04-11T21:07:45.118Z,35.80
2019-04-11T21:10:11.551Z,35.60
2019-04-11T21:12:38.192Z,35.60
2019-04-11T21:15:06.704Z,35.60
2019-04-11T21:17:33.102Z,35.60
2019-04-11T21:19:59.726Z,35.60
2019-04-11T21:22:26.175Z,35.60
2019-04-11T21:24:52.608Z,35.60
2019-04-11T21:27:18.936Z,35.40
2019-04-11T21:29:45.477Z,35.50
2019-04-11T21:32:13.943Z,35.30
2019-04-11T21:34:39.975Z,35.30
2019-04-11T21:37:06.612Z,35.10
2019-04-11T21:39:33.046Z,34.90
2019-04-11T21:41:59.356Z,35.60
2019-04-11T21:44:25.713Z,35.00
2019-04-11T21:46:52.383Z,34.90
2019-04-11T21:49:18.782Z,35.00
2019-04-11T21:51:45.314Z,34.80
2019-04-11T21:54:14.766Z,35.60
2019-04-11T21:56:40.225Z,35.80
2019-04-11T21:59:06.762Z,35.70
2019-04-11T22:01:35.036Z,35.60
2019-04-11T22:04:01.592Z,35.70
2019-04-11T22:06:30.422Z,35.80
2019-04-11T22:08:56.266Z,35.70
2019-04-11T22:11:22.716Z,35.80
2019-04-11T22:13:49.047Z,35.90
2019-04-11T22:16:17.081Z,35.70
2019-04-11T22:18:44.353Z,35.90
2019-04-11T22:21:12.999Z,35.90
2019-04-11T22:23:48.340Z,36.00
2019-04-11T22:26:07.966Z,36.00
2019-04-11T22:28:34.223Z,36.10
2019-04-11T22:31:00.528Z,36.10
2019-04-11T22:33:31.867Z,36.20
2019-04-11T22:35:59.352Z,36.30
2019-04-11T22:38:26.273Z,36.20
2019-04-11T22:40:52.603Z,36.60
2019-04-11T22:43:24.313Z,36.20
2019-04-11T22:45:47.107Z,36.20
2019-04-11T22:48:15.161Z,36.10
2019-04-11T22:50:41.612Z,36.10
2019-04-11T22:53:08.252Z,36.30
2019-04-11T22:55:34.887Z,36.20
2019-04-11T22:58:01.216Z,36.30
2019-04-11T23:00:27.547Z,36.30
2019-04-11T23:03:01.451Z,36.10
2019-04-11T23:05:27.778Z,36.20
2019-04-11T23:07:54.440Z,36.30
2019-04-11T23:10:20.857Z,36.20
2019-04-11T23:12:47.293Z,36.30
2019-04-11T23:15:15.196Z,37.10
2019-04-11T23:17:41.779Z,36.50
2019-04-11T23:20:11.861Z,36.50
2019-04-11T23:22:40.082Z,36.60
2019-04-11T23:25:06.946Z,36.60
2019-04-11T23:27:33.226Z,36.70
2019-04-11T23:29:59.591Z,36.80
2019-04-11T23:32:25.839Z,37.00
2019-04-11T23:34:52.715Z,37.00
2019-04-11T23:37:21.013Z,37.10
2019-04-11T23:39:47.777Z,37.70
2019-04-11T23:42:14.312Z,37.20
2019-04-11T23:44:40.646Z,37.40
2019-04-11T23:47:07.076Z,37.40
2019-04-11T23:49:33.405Z,37.40
2019-04-11T23:52:00.060Z,37.50
2019-04-11T23:54:28.943Z,37.50
2019-04-11T23:56:54.956Z,37.50
2019-04-11T23:59:21.286Z,37.50
